sensor_id;sensor_type;location;lat;lon;timestamp;temperature;humidity
18073;DHT22;9161;47.348;9.648;2023-05-01T00:03:36;13.30;99.90
18073;DHT22;9161;47.348;9.648;2023-05-01T00:08:38;13.10;99.90
18073;DHT22;9161;47.348;9.648;2023-05-01T00:13:41;13.00;99.90
18073;DHT22;9161;47.348;9.648;2023-05-01T00:18:44;13.00;99.90
18073;DHT22;9161;47.348;9.648;2023-05-01T00:23:46;12.90;99.90
18073;DHT22;9161;47.348;9.648;2023-05-01T00:28:49;12.90;99.90
18073;DHT22;9161;47.348;9.648;2023-05-01T00:33:52;12.80;99.90
18073;DHT22;9161;47.348;9.648;2023-05-01T00:38:55;12.80;99.90
18073;DHT22;9161;47.348;9.648;2023-05-01T00:43:57;12.80;99.90
18073;DHT22;9161;47.348;9.648;2023-05-01T00:49:01;12.80;99.90
18073;DHT22;9161;47.348;9.648;2023-05-01T00:54:04;12.80;99.90
18073;DHT22;9161;47.348;9.648;2023-05-01T00:59:07;12.70;99.90
18073;DHT22;9161;47.348;9.648;2023-05-01T01:04:11;12.70;99.90
18073;DHT22;9161;47.348;9.648;2023-05-01T01:09:21;12.70;99.90
18073;DHT22;9161;47.348;9.648;2023-05-01T01:14:27;12.70;99.90
18073;DHT22;9161;47.348;9.648;2023-05-01T01:20:03;12.70;99.90
18073;DHT22;9161;47.348;9.648;2023-05-01T01:31:08;12.60;99.90
18073;DHT22;9161;47.348;9.648;2023-05-01T01:36:18;12.60;99.90
18073;DHT22;9161;47.348;9.648;2023-05-01T01:41:27;12.60;99.90
18073;DHT22;9161;47.348;9.648;2023-05-01T01:46:36;12.50;99.90
18073;DHT22;9161;47.348;9.648;2023-05-01T01:51:40;12.40;99.90
18073;DHT22;9161;47.348;9.648;2023-05-01T01:56:43;12.40;99.90
18073;DHT22;9161;47.348;9.648;2023-05-01T02:01:48;12.40;99.90
18073;DHT22;9161;47.348;9.648;2023-05-01T02:06:54;12.40;99.90
18073;DHT22;9161;47.348;9.648;2023-05-01T02:11:58;12.40;99.90
18073;DHT22;9161;47.348;9.648;2023-05-01T02:17:02;12.30;99.90
18073;DHT22;9161;47.348;9.648;2023-05-01T02:22:06;12.10;99.90
18073;DHT22;9161;47.348;9.648;2023-05-01T02:27:12;12.10;99.90
18073;DHT22;9161;47.348;9.648;2023-05-01T02:32:16;12.10;99.90
18073;DHT22;9161;47.348;9.648;2023-05-01T02:37:20;12.10;99.90
18073;DHT22;9161;47.348;9.648;2023-05-01T02:42:23;12.10;99.90
18073;DHT22;9161;47.348;9.648;2023-05-01T02:47:27;12.10;99.90
18073;DHT22;9161;47.348;9.648;2023-05-01T02:52:32;12.10;99.90
18073;DHT22;9161;47.348;9.648;2023-05-01T02:57:35;12.10;99.90
18073;DHT22;9161;47.348;9.648;2023-05-01T03:02:38;12.10;99.90
18073;DHT22;9161;47.348;9.648;2023-05-01T03:07:41;12.10;99.90
18073;DHT22;9161;47.348;9.648;2023-05-01T03:12:44;12.10;99.90
18073;DHT22;9161;47.348;9.648;2023-05-01T03:17:46;12.10;99.90
18073;DHT22;9161;47.348;9.648;2023-05-01T03:22:49;12.10;99.90
18073;DHT22;9161;47.348;9.648;2023-05-01T03:27:51;12.00;99.90
18073;DHT22;9161;47.348;9.648;2023-05-01T03:32:55;12.00;99.90
18073;DHT22;9161;47.348;9.648;2023-05-01T03:37:58;12.00;99.90
18073;DHT22;9161;47.348;9.648;2023-05-01T03:43:01;12.00;99.90
18073;DHT22;9161;47.348;9.648;2023-05-01T03:48:04;11.90;99.90
18073;DHT22;9161;47.348;9.648;2023-05-01T03:53:07;11.70;99.90
18073;DHT22;9161;47.348;9.648;2023-05-01T03:58:09;11.70;99.90
18073;DHT22;9161;47.348;9.648;2023-05-01T04:03:12;11.70;99.90
18073;DHT22;9161;47.348;9.648;2023-05-01T04:08:16;11.60;99.90
18073;DHT22;9161;47.348;9.648;2023-05-01T04:13:18;11.50;99.90
18073;DHT22;9161;47.348;9.648;2023-05-01T04:18:20;11.40;99.90
18073;DHT22;9161;47.348;9.648;2023-05-01T04:23:24;11.40;99.90
18073;DHT22;9161;47.348;9.648;2023-05-01T04:28:26;11.30;99.90
18073;DHT22;9161;47.348;9.648;2023-05-01T04:33:30;11.30;99.90
18073;DHT22;9161;47.348;9.648;2023-05-01T05:10:40;11.20;99.90
18073;DHT22;9161;47.348;9.648;2023-05-01T05:15:43;11.20;99.90
18073;DHT22;9161;47.348;9.648;2023-05-01T05:20:45;11.30;99.90
18073;DHT22;9161;47.348;9.648;2023-05-01T05:25:49;11.20;99.90
18073;DHT22;9161;47.348;9.648;2023-05-01T05:30:51;11.30;99.90
18073;DHT22;9161;47.348;9.648;2023-05-01T05:35:53;11.20;99.90
18073;DHT22;9161;47.348;9.648;2023-05-01T05:40:57;11.20;99.90
18073;DHT22;9161;47.348;9.648;2023-05-01T05:46:00;11.20;99.90
18073;DHT22;9161;47.348;9.648;2023-05-01T05:51:03;11.30;99.90
18073;DHT22;9161;47.348;9.648;2023-05-01T05:56:07;11.30;99.90
18073;DHT22;9161;47.348;9.648;2023-05-01T06:01:09;11.30;99.90
18073;DHT22;9161;47.348;9.648;2023-05-01T06:06:12;11.30;99.90
18073;DHT22;9161;47.348;9.648;2023-05-01T06:11:15;11.30;99.90
18073;DHT22;9161;47.348;9.648;2023-05-01T06:16:18;11.30;99.90
18073;DHT22;9161;47.348;9.648;2023-05-01T06:21:20;11.30;99.90
18073;DHT22;9161;47.348;9.648;2023-05-01T06:26:24;11.30;99.90
18073;DHT22;9161;47.348;9.648;2023-05-01T06:31:26;11.40;99.90
18073;DHT22;9161;47.348;9.648;2023-05-01T06:36:31;11.50;99.90
18073;DHT22;9161;47.348;9.648;2023-05-01T06:41:35;11.50;99.90
18073;DHT22;9161;47.348;9.648;2023-05-01T06:46:38;11.50;99.90
18073;DHT22;9161;47.348;9.648;2023-05-01T06:51:40;11.50;99.90
18073;DHT22;9161;47.348;9.648;2023-05-01T06:56:44;11.50;99.90
18073;DHT22;9161;47.348;9.648;2023-05-01T07:01:46;11.50;99.90
18073;DHT22;9161;47.348;9.648;2023-05-01T07:06:49;11.50;99.90
18073;DHT22;9161;47.348;9.648;2023-05-01T07:11:53;11.60;99.90
18073;DHT22;9161;47.348;9.648;2023-05-01T07:16:56;11.60;99.90
18073;DHT22;9161;47.348;9.648;2023-05-01T07:21:59;11.60;99.90
18073;DHT22;9161;47.348;9.648;2023-05-01T07:27:03;11.60;99.90
18073;DHT22;9161;47.348;9.648;2023-05-01T07:32:06;11.60;99.90
18073;DHT22;9161;47.348;9.648;2023-05-01T07:37:08;11.50;99.90
18073;DHT22;9161;47.348;9.648;2023-05-01T07:42:12;11.60;99.90
18073;DHT22;9161;47.348;9.648;2023-05-01T07:47:14;11.80;99.90
18073;DHT22;9161;47.348;9.648;2023-05-01T07:52:16;11.90;99.90
18073;DHT22;9161;47.348;9.648;2023-05-01T07:57:20;12.10;99.90
18073;DHT22;9161;47.348;9.648;2023-05-01T08:02:23;12.20;99.90
18073;DHT22;9161;47.348;9.648;2023-05-01T08:07:25;12.20;99.90
18073;DHT22;9161;47.348;9.648;2023-05-01T08:12:28;12.40;99.90
18073;DHT22;9161;47.348;9.648;2023-05-01T08:17:31;12.60;99.90
18073;DHT22;9161;47.348;9.648;2023-05-01T08:22:33;12.60;99.90
18073;DHT22;9161;47.348;9.648;2023-05-01T08:27:37;12.80;99.90
18073;DHT22;9161;47.348;9.648;2023-05-01T08:32:40;13.00;99.90
18073;DHT22;9161;47.348;9.648;2023-05-01T08:37:42;13.10;99.90
18073;DHT22;9161;47.348;9.648;2023-05-01T08:42:45;13.30;99.90
18073;DHT22;9161;47.348;9.648;2023-05-01T08:47:48;13.30;99.90
18073;DHT22;9161;47.348;9.648;2023-05-01T08:52:52;13.30;99.90
18073;DHT22;9161;47.348;9.648;2023-05-01T08:57:57;13.20;99.90
18073;DHT22;9161;47.348;9.648;2023-05-01T09:03:00;13.30;99.90
18073;DHT22;9161;47.348;9.648;2023-05-01T09:08:03;13.30;99.90
18073;DHT22;9161;47.348;9.648;2023-05-01T09:13:07;13.30;99.90
18073;DHT22;9161;47.348;9.648;2023-05-01T09:18:10;13.40;99.90
18073;DHT22;9161;47.348;9.648;2023-05-01T09:23:13;13.40;99.90
18073;DHT22;9161;47.348;9.648;2023-05-01T09:28:38;13.30;99.90
18073;DHT22;9161;47.348;9.648;2023-05-01T09:33:51;13.20;99.90
18073;DHT22;9161;47.348;9.648;2023-05-01T09:38:54;13.10;99.90
18073;DHT22;9161;47.348;9.648;2023-05-01T09:43:58;13.20;99.90
18073;DHT22;9161;47.348;9.648;2023-05-01T09:49:01;13.10;99.90
18073;DHT22;9161;47.348;9.648;2023-05-01T09:54:04;13.20;99.90
18073;DHT22;9161;47.348;9.648;2023-05-01T09:59:17;13.30;99.90
18073;DHT22;9161;47.348;9.648;2023-05-01T10:04:28;13.60;99.90
18073;DHT22;9161;47.348;9.648;2023-05-01T10:09:31;13.90;99.90
18073;DHT22;9161;47.348;9.648;2023-05-01T10:14:49;14.20;99.90
18073;DHT22;9161;47.348;9.648;2023-05-01T10:19:51;14.40;99.90
18073;DHT22;9161;47.348;9.648;2023-05-01T10:24:55;14.40;99.90
18073;DHT22;9161;47.348;9.648;2023-05-01T10:30:01;14.60;99.90
18073;DHT22;9161;47.348;9.648;2023-05-01T10:35:08;14.70;99.90
18073;DHT22;9161;47.348;9.648;2023-05-01T10:40:44;14.70;99.90
18073;DHT22;9161;47.348;9.648;2023-05-01T10:45:48;14.80;99.90
18073;DHT22;9161;47.348;9.648;2023-05-01T10:51:10;15.00;99.90
18073;DHT22;9161;47.348;9.648;2023-05-01T10:56:40;15.30;99.90
18073;DHT22;9161;47.348;9.648;2023-05-01T11:01:45;15.40;99.90
18073;DHT22;9161;47.348;9.648;2023-05-01T11:07:15;15.50;99.90
18073;DHT22;9161;47.348;9.648;2023-05-01T11:12:47;15.70;99.90
18073;DHT22;9161;47.348;9.648;2023-05-01T11:17:52;15.70;99.90
18073;DHT22;9161;47.348;9.648;2023-05-01T11:22:56;15.60;99.90
18073;DHT22;9161;47.348;9.648;2023-05-01T11:27:59;15.70;99.90
18073;DHT22;9161;47.348;9.648;2023-05-01T11:33:03;15.30;99.90
18073;DHT22;9161;47.348;9.648;2023-05-01T11:38:15;15.70;99.90
18073;DHT22;9161;47.348;9.648;2023-05-01T11:43:19;16.00;99.90
18073;DHT22;9161;47.348;9.648;2023-05-01T11:48:22;16.00;99.90
18073;DHT22;9161;47.348;9.648;2023-05-01T11:53:25;16.20;99.90
18073;DHT22;9161;47.348;9.648;2023-05-01T11:58:33;16.60;99.90
18073;DHT22;9161;47.348;9.648;2023-05-01T12:03:42;17.60;99.90
18073;DHT22;9161;47.348;9.648;2023-05-01T12:08:48;18.90;99.90
18073;DHT22;9161;47.348;9.648;2023-05-01T12:13:54;19.10;99.90
18073;DHT22;9161;47.348;9.648;2023-05-01T12:18:59;19.40;99.90
18073;DHT22;9161;47.348;9.648;2023-05-01T12:24:09;19.10;99.90
18073;DHT22;9161;47.348;9.648;2023-05-01T12:29:12;18.90;99.90
18073;DHT22;9161;47.348;9.648;2023-05-01T12:34:16;18.60;99.90
18073;DHT22;9161;47.348;9.648;2023-05-01T12:39:18;18.00;99.90
18073;DHT22;9161;47.348;9.648;2023-05-01T12:44:22;17.90;99.90
18073;DHT22;9161;47.348;9.648;2023-05-01T12:49:27;17.60;99.90
18073;DHT22;9161;47.348;9.648;2023-05-01T12:54:30;17.20;99.90
18073;DHT22;9161;47.348;9.648;2023-05-01T12:59:32;16.90;99.90
18073;DHT22;9161;47.348;9.648;2023-05-01T13:04:37;16.70;99.90
18073;DHT22;9161;47.348;9.648;2023-05-01T13:09:49;17.50;99.90
18073;DHT22;9161;47.348;9.648;2023-05-01T13:14:53;18.20;99.90
18073;DHT22;9161;47.348;9.648;2023-05-01T13:19:57;18.30;99.90
18073;DHT22;9161;47.348;9.648;2023-05-01T13:25:01;18.20;99.90
18073;DHT22;9161;47.348;9.648;2023-05-01T13:30:06;17.50;99.90
18073;DHT22;9161;47.348;9.648;2023-05-01T13:35:10;16.90;99.90
18073;DHT22;9161;47.348;9.648;2023-05-01T13:40:13;16.00;99.90
18073;DHT22;9161;47.348;9.648;2023-05-01T13:45:18;16.20;99.90
18073;DHT22;9161;47.348;9.648;2023-05-01T13:50:22;16.20;99.90
18073;DHT22;9161;47.348;9.648;2023-05-01T13:55:25;16.10;99.90
18073;DHT22;9161;47.348;9.648;2023-05-01T14:00:27;15.90;99.90
18073;DHT22;9161;47.348;9.648;2023-05-01T14:05:31;16.10;99.90
18073;DHT22;9161;47.348;9.648;2023-05-01T14:10:33;15.80;99.90
18073;DHT22;9161;47.348;9.648;2023-05-01T14:15:35;15.50;99.90
18073;DHT22;9161;47.348;9.648;2023-05-01T14:20:45;15.30;99.90
18073;DHT22;9161;47.348;9.648;2023-05-01T14:25:48;15.20;99.90
18073;DHT22;9161;47.348;9.648;2023-05-01T14:30:51;15.10;99.90
18073;DHT22;9161;47.348;9.648;2023-05-01T14:35:55;14.80;99.90
18073;DHT22;9161;47.348;9.648;2023-05-01T14:41:19;14.70;99.90
18073;DHT22;9161;47.348;9.648;2023-05-01T14:46:56;14.80;99.90
18073;DHT22;9161;47.348;9.648;2023-05-01T14:58:01;14.80;99.90
18073;DHT22;9161;47.348;9.648;2023-05-01T15:03:03;14.70;99.90
18073;DHT22;9161;47.348;9.648;2023-05-01T15:08:05;14.60;99.90
18073;DHT22;9161;47.348;9.648;2023-05-01T15:13:10;14.60;99.90
18073;DHT22;9161;47.348;9.648;2023-05-01T15:18:12;14.40;99.90
18073;DHT22;9161;47.348;9.648;2023-05-01T15:23:14;14.20;99.90
18073;DHT22;9161;47.348;9.648;2023-05-01T15:28:18;14.30;99.90
18073;DHT22;9161;47.348;9.648;2023-05-01T15:33:20;14.20;99.90
18073;DHT22;9161;47.348;9.648;2023-05-01T15:38:23;14.10;99.90
18073;DHT22;9161;47.348;9.648;2023-05-01T15:43:27;13.70;99.90
18073;DHT22;9161;47.348;9.648;2023-05-01T15:48:30;13.80;99.90
18073;DHT22;9161;47.348;9.648;2023-05-01T15:53:33;13.80;99.90
18073;DHT22;9161;47.348;9.648;2023-05-01T15:58:36;13.80;99.90
18073;DHT22;9161;47.348;9.648;2023-05-01T16:03:43;13.70;99.90
18073;DHT22;9161;47.348;9.648;2023-05-01T16:08:45;13.60;99.90
18073;DHT22;9161;47.348;9.648;2023-05-01T16:13:49;13.30;99.90
18073;DHT22;9161;47.348;9.648;2023-05-01T16:18:54;13.30;99.90
18073;DHT22;9161;47.348;9.648;2023-05-01T16:23:57;13.20;99.90
18073;DHT22;9161;47.348;9.648;2023-05-01T16:29:04;12.90;99.90
18073;DHT22;9161;47.348;9.648;2023-05-01T16:34:09;13.10;99.90
18073;DHT22;9161;47.348;9.648;2023-05-01T16:39:14;13.30;99.90
18073;DHT22;9161;47.348;9.648;2023-05-01T16:44:21;13.30;99.90
18073;DHT22;9161;47.348;9.648;2023-05-01T16:49:24;13.40;99.90
18073;DHT22;9161;47.348;9.648;2023-05-01T16:54:27;13.40;99.90
18073;DHT22;9161;47.348;9.648;2023-05-01T16:59:36;13.50;99.90
18073;DHT22;9161;47.348;9.648;2023-05-01T17:04:38;13.40;99.90
18073;DHT22;9161;47.348;9.648;2023-05-01T17:09:41;13.40;99.90
18073;DHT22;9161;47.348;9.648;2023-05-01T17:14:46;13.40;99.90
18073;DHT22;9161;47.348;9.648;2023-05-01T17:19:48;13.40;99.90
18073;DHT22;9161;47.348;9.648;2023-05-01T17:24:50;13.30;99.90
18073;DHT22;9161;47.348;9.648;2023-05-01T17:29:54;13.20;99.90
18073;DHT22;9161;47.348;9.648;2023-05-01T17:34:57;13.10;99.90
18073;DHT22;9161;47.348;9.648;2023-05-01T17:39:59;12.80;99.90
18073;DHT22;9161;47.348;9.648;2023-05-01T17:45:06;12.70;99.90
18073;DHT22;9161;47.348;9.648;2023-05-01T17:50:11;12.50;99.90
18073;DHT22;9161;47.348;9.648;2023-05-01T17:55:14;12.40;99.90
18073;DHT22;9161;47.348;9.648;2023-05-01T18:00:31;12.30;99.90
18073;DHT22;9161;47.348;9.648;2023-05-01T18:05:36;12.20;99.90
18073;DHT22;9161;47.348;9.648;2023-05-01T18:10:39;12.20;99.90
18073;DHT22;9161;47.348;9.648;2023-05-01T18:15:45;12.00;99.90
18073;DHT22;9161;47.348;9.648;2023-05-01T18:20:51;11.90;99.90
18073;DHT22;9161;47.348;9.648;2023-05-01T18:25:55;11.70;99.90
18073;DHT22;9161;47.348;9.648;2023-05-01T18:31:00;11.50;99.90
18073;DHT22;9161;47.348;9.648;2023-05-01T18:36:03;11.50;99.90
18073;DHT22;9161;47.348;9.648;2023-05-01T18:41:06;11.50;99.90
18073;DHT22;9161;47.348;9.648;2023-05-01T18:46:11;11.50;99.90
18073;DHT22;9161;47.348;9.648;2023-05-01T18:51:14;11.60;99.90
18073;DHT22;9161;47.348;9.648;2023-05-01T18:56:19;11.50;99.90
18073;DHT22;9161;47.348;9.648;2023-05-01T19:01:26;11.50;99.90
18073;DHT22;9161;47.348;9.648;2023-05-01T19:06:30;11.40;99.90
18073;DHT22;9161;47.348;9.648;2023-05-01T19:11:34;11.40;99.90
18073;DHT22;9161;47.348;9.648;2023-05-01T19:16:39;11.40;99.90
18073;DHT22;9161;47.348;9.648;2023-05-01T19:21:45;11.40;99.90
18073;DHT22;9161;47.348;9.648;2023-05-01T19:26:50;11.30;99.90
18073;DHT22;9161;47.348;9.648;2023-05-01T19:32:02;11.20;99.90
18073;DHT22;9161;47.348;9.648;2023-05-01T19:37:05;11.00;99.90
18073;DHT22;9161;47.348;9.648;2023-05-01T19:42:09;10.90;99.90
18073;DHT22;9161;47.348;9.648;2023-05-01T19:47:15;10.80;99.90
18073;DHT22;9161;47.348;9.648;2023-05-01T19:52:18;10.70;99.90
18073;DHT22;9161;47.348;9.648;2023-05-01T19:57:25;10.80;99.90
18073;DHT22;9161;47.348;9.648;2023-05-01T20:02:29;10.80;99.90
18073;DHT22;9161;47.348;9.648;2023-05-01T20:07:32;10.80;99.90
18073;DHT22;9161;47.348;9.648;2023-05-01T20:12:35;10.70;99.90
18073;DHT22;9161;47.348;9.648;2023-05-01T20:17:40;10.70;99.90
18073;DHT22;9161;47.348;9.648;2023-05-01T20:22:43;10.80;99.90
18073;DHT22;9161;47.348;9.648;2023-05-01T20:27:46;10.80;99.90
18073;DHT22;9161;47.348;9.648;2023-05-01T20:32:49;10.80;99.90
18073;DHT22;9161;47.348;9.648;2023-05-01T20:37:52;10.80;99.90
18073;DHT22;9161;47.348;9.648;2023-05-01T20:42:54;10.70;99.90
18073;DHT22;9161;47.348;9.648;2023-05-01T20:48:00;10.80;99.90
18073;DHT22;9161;47.348;9.648;2023-05-01T20:53:04;10.70;99.90
18073;DHT22;9161;47.348;9.648;2023-05-01T20:58:07;10.70;99.90
18073;DHT22;9161;47.348;9.648;2023-05-01T21:03:10;10.60;99.90
18073;DHT22;9161;47.348;9.648;2023-05-01T21:08:14;10.40;99.90
18073;DHT22;9161;47.348;9.648;2023-05-01T21:13:16;10.30;99.90
18073;DHT22;9161;47.348;9.648;2023-05-01T21:18:22;10.30;99.90
18073;DHT22;9161;47.348;9.648;2023-05-01T21:23:24;10.20;99.90
18073;DHT22;9161;47.348;9.648;2023-05-01T21:28:26;10.30;99.90
18073;DHT22;9161;47.348;9.648;2023-05-01T21:33:30;10.30;99.90
18073;DHT22;9161;47.348;9.648;2023-05-01T21:38:33;10.30;99.90
18073;DHT22;9161;47.348;9.648;2023-05-01T21:43:36;10.30;99.90
18073;DHT22;9161;47.348;9.648;2023-05-01T21:48:40;10.20;99.90
18073;DHT22;9161;47.348;9.648;2023-05-01T21:53:42;10.20;99.90
18073;DHT22;9161;47.348;9.648;2023-05-01T21:58:45;10.20;99.90
18073;DHT22;9161;47.348;9.648;2023-05-01T22:03:48;10.20;99.90
18073;DHT22;9161;47.348;9.648;2023-05-01T22:08:52;10.10;99.90
18073;DHT22;9161;47.348;9.648;2023-05-01T22:13:55;10.10;99.90
18073;DHT22;9161;47.348;9.648;2023-05-01T22:19:00;10.10;99.90
18073;DHT22;9161;47.348;9.648;2023-05-01T22:24:03;10.00;99.90
18073;DHT22;9161;47.348;9.648;2023-05-01T22:29:06;10.10;99.90
18073;DHT22;9161;47.348;9.648;2023-05-01T22:34:10;10.10;99.90
18073;DHT22;9161;47.348;9.648;2023-05-01T22:39:12;10.10;99.90
18073;DHT22;9161;47.348;9.648;2023-05-01T22:44:14;10.00;99.90
18073;DHT22;9161;47.348;9.648;2023-05-01T22:49:17;10.10;99.90
18073;DHT22;9161;47.348;9.648;2023-05-01T22:54:20;10.10;99.90
18073;DHT22;9161;47.348;9.648;2023-05-01T22:59:22;10.10;99.90
18073;DHT22;9161;47.348;9.648;2023-05-01T23:04:27;10.10;99.90
18073;DHT22;9161;47.348;9.648;2023-05-01T23:09:29;10.10;99.90
18073;DHT22;9161;47.348;9.648;2023-05-01T23:14:32;10.00;99.90
18073;DHT22;9161;47.348;9.648;2023-05-01T23:19:37;10.00;99.90
18073;DHT22;9161;47.348;9.648;2023-05-01T23:24:44;10.10;99.90
18073;DHT22;9161;47.348;9.648;2023-05-01T23:29:51;10.10;99.90
18073;DHT22;9161;47.348;9.648;2023-05-01T23:35:11;10.00;99.90
18073;DHT22;9161;47.348;9.648;2023-05-01T23:40:14;10.00;99.90
18073;DHT22;9161;47.348;9.648;2023-05-01T23:45:16;10.00;99.90
18073;DHT22;9161;47.348;9.648;2023-05-01T23:50:22;10.00;99.90
18073;DHT22;9161;47.348;9.648;2023-05-01T23:55:25;10.00;99.90
